Weather Underground® Station Historical Data


Station Historical Data For Bruceton, TN. (K3JAE's Weather Station - KTNBRUCE2)
 
Daily Summary for:  March 28, 2017 Units:  English    Metric   Both
« Previous Day
Next Day »
Daily Weekly Monthly Yearly Custom
  Current: High: Low: Average:
Temperature: 63.2 °F 63.2 °F 50.5 °F 53.8 °F
Dew Point: 56.6 °F 57.3 °F 46.2 °F 49.3 °F
Humidity: 79% 89% 79% 85%
Wind Speed: 3.5mph 9.2mph 0.0mph 1.4mph
Wind Gust: 3.5mph 9.2mph - -
WindNE - - ESE
Pressure: 30.06 in 30.06 in 29.90 in -
Precipitation: 0.01 in      
Historical Graphs
 
 
Tabular Data for:  March 28, 2017
Time Temperature Dew Point Pressure Wind Wind Speed Wind Gust Humidity Rainfall Rate (Hourly) solar Conditions
00:01 54.2 °F 49.8 °F 29.90 in Calm     85% 0.00 in 0.0 W/m2 RA
00:06 54.1 °F 49.7 °F 29.90 in Calm     85% 0.00 in 0.0 W/m2 OVC
00:11 54.1 °F 49.7 °F 29.90 in Calm     85% 0.00 in 0.0 W/m2 OVC
00:16 54.0 °F 49.6 °F 29.90 in Calm     85% 0.00 in 0.0 W/m2 OVC
00:21 53.9 °F 49.5 °F 29.90 in Calm     85% 0.00 in 0.0 W/m2 OVC
00:26 53.8 °F 49.7 °F 29.90 in East 2.3 mph 2.3 mph 86% 0.00 in 0.0 W/m2 OVC
00:31 53.7 °F 49.3 °F 29.90 in Calm     85% 0.00 in 0.0 W/m2 OVC
00:36 53.6 °F 49.2 °F 29.90 in Calm     85% 0.00 in 0.0 W/m2 OVC
00:41 53.5 °F 49.1 °F 29.90 in Calm     85% 0.00 in 0.0 W/m2 OVC
00:46 53.4 °F 49.0 °F 29.90 in Calm     85% 0.00 in 0.0 W/m2 OVC
00:51 53.3 °F 49.2 °F 29.90 in Calm     86% 0.00 in 0.0 W/m2 OVC
00:56 53.2 °F 49.1 °F 29.90 in Calm     86% 0.00 in 0.0 W/m2 OVC
01:01 53.1 °F 49.0 °F 29.90 in Calm     86% 0.00 in 0.0 W/m2 BKN
01:06 53.0 °F 48.6 °F 29.90 in Calm     85% 0.00 in 0.0 W/m2 BKN
01:11 52.9 °F 48.5 °F 29.90 in Calm     85% 0.00 in 0.0 W/m2 BKN
01:14 52.8 °F 48.4 °F 29.90 in Calm     85% 0.00 in 0.0 W/m2 BKN
01:19 52.7 °F 48.6 °F 29.90 in Calm     86% 0.00 in 0.0 W/m2 BKN
01:24 52.6 °F 48.5 °F 29.91 in Calm     86% 0.00 in 0.0 W/m2 BKN
01:29 52.6 °F 48.5 °F 29.91 in Calm     86% 0.00 in 0.0 W/m2 BKN
01:34 52.5 °F 48.4 °F 29.91 in Calm     86% 0.00 in 0.0 W/m2 BKN
01:39 52.4 °F 48.3 °F 29.91 in Calm     86% 0.00 in 0.0 W/m2 BKN
01:44 52.3 °F 47.9 °F 29.91 in Calm     85% 0.00 in 0.0 W/m2 BKN
01:49 52.2 °F 47.8 °F 29.91 in Calm     85% 0.00 in 0.0 W/m2 BKN
01:54 52.1 °F 47.7 °F 29.91 in Calm     85% 0.00 in 0.0 W/m2 BKN
01:59 52.1 °F 47.7 °F 29.92 in Calm     85% 0.00 in 0.0 W/m2 BKN
02:04 52.1 °F 47.7 °F 29.92 in Calm     85% 0.00 in 0.0 W/m2 BKN
02:09 52.2 °F 47.8 °F 29.92 in Calm     85% 0.00 in 0.0 W/m2 BKN
02:14 52.2 °F 47.8 °F 29.92 in Calm     85% 0.00 in 0.0 W/m2 BKN
02:19 52.3 °F 47.9 °F 29.92 in Calm     85% 0.00 in 0.0 W/m2 BKN
02:24 52.3 °F 47.9 °F 29.92 in Calm     85% 0.00 in 0.0 W/m2 BKN
02:29 52.2 °F 47.8 °F 29.92 in Calm     85% 0.00 in 0.0 W/m2 BKN
02:34 52.1 °F 47.7 °F 29.92 in Calm     85% 0.00 in 0.0 W/m2 BKN
02:39 52.1 °F 47.7 °F 29.93 in Calm     85% 0.00 in 0.0 W/m2 BKN
02:44 52.1 °F 47.7 °F 29.93 in Calm     85% 0.00 in 0.0 W/m2 OVC
02:49 52.1 °F 47.7 °F 29.93 in Calm     85% 0.00 in 0.0 W/m2 OVC
02:54 52.1 °F 47.7 °F 29.93 in Calm     85% 0.00 in 0.0 W/m2 OVC
02:59 52.1 °F 47.7 °F 29.93 in Calm   0.1 mph 85% 0.00 in 0.0 W/m2 OVC
03:04 52.1 °F 47.7 °F 29.93 in East 2.3 mph 2.3 mph 85% 0.00 in 0.0 W/m2 OVC
03:09 52.1 °F 47.7 °F 29.93 in East 1.2 mph 1.2 mph 85% 0.00 in 0.0 W/m2 OVC
03:14 52.0 °F 47.6 °F 29.93 in Calm     85% 0.00 in 0.0 W/m2 OVC
03:19 52.0 °F 47.6 °F 29.93 in Calm     85% 0.00 in 0.0 W/m2 OVC
03:24 52.0 °F 47.6 °F 29.93 in Calm     85% 0.00 in 0.0 W/m2 OVC
03:29 52.0 °F 47.6 °F 29.93 in Calm     85% 0.00 in 0.0 W/m2 OVC
03:34 52.1 °F 47.7 °F 29.93 in Calm     85% 0.00 in 0.0 W/m2 OVC
03:39 52.3 °F 47.9 °F 29.93 in Calm     85% 0.00 in 0.0 W/m2 OVC
03:44 52.3 °F 47.9 °F 29.93 in East 1.2 mph   85% 0.00 in 0.0 W/m2 OVC
03:49 52.4 °F 48.0 °F 29.93 in Calm     85% 0.00 in 0.0 W/m2 OVC
03:54 52.4 °F 48.0 °F 29.93 in Calm     85% 0.00 in 0.0 W/m2 OVC
03:59 52.4 °F 48.0 °F 29.93 in East 2.3 mph 2.3 mph 85% 0.00 in 0.0 W/m2 OVC
04:04 52.5 °F 48.1 °F 29.93 in East 2.3 mph 2.3 mph 85% 0.00 in 0.0 W/m2 CLR
04:09 52.5 °F 48.1 °F 29.93 in East 2.3 mph 2.3 mph 85% 0.00 in 0.0 W/m2 CLR
04:14 52.6 °F 48.2 °F 29.93 in East 3.5 mph 3.5 mph 85% 0.00 in 0.0 W/m2 OVC
04:19 52.7 °F 48.3 °F 29.94 in East 1.2 mph 1.2 mph 85% 0.01 in 0.0 W/m2 RA
04:24 52.8 °F 48.4 °F 29.94 in East 2.3 mph 2.3 mph 85% 0.01 in 0.0 W/m2 OVC
04:29 52.9 °F 48.5 °F 29.94 in ENE 2.3 mph 2.3 mph 85% 0.01 in 0.0 W/m2 OVC
04:34 52.9 °F 48.5 °F 29.94 in ENE 2.3 mph 2.3 mph 85% 0.01 in 0.0 W/m2 OVC
04:39 53.0 °F 48.6 °F 29.95 in ENE 1.2 mph 1.2 mph 85% 0.01 in 0.0 W/m2 OVC
04:44 53.0 °F 48.6 °F 29.95 in Calm     85% 0.01 in 0.0 W/m2 OVC
04:49 53.0 °F 48.6 °F 29.95 in Calm     85% 0.01 in 0.0 W/m2 OVC
04:54 52.9 °F 48.5 °F 29.95 in ENE 1.2 mph 1.2 mph 85% 0.01 in 0.0 W/m2 OVC
04:59 52.8 °F 48.4 °F 29.95 in ENE 2.3 mph 2.3 mph 85% 0.01 in 0.0 W/m2 OVC
05:04 52.8 °F 48.4 °F 29.96 in Calm     85% 0.01 in 0.0 W/m2 OVC
05:09 52.7 °F 48.3 °F 29.96 in Calm     85% 0.01 in 0.0 W/m2 OVC
05:14 52.6 °F 48.2 °F 29.95 in Calm     85% 0.01 in 0.0 W/m2 OVC
05:19 52.4 °F 48.0 °F 29.95 in Calm     85% 0.00 in 0.0 W/m2 OVC
05:24 52.3 °F 47.9 °F 29.96 in Calm     85% 0.00 in 0.0 W/m2 OVC
05:29 52.2 °F 47.8 °F 29.96 in ENE 2.3 mph 2.3 mph 85% 0.00 in 0.0 W/m2 OVC
05:34 52.1 °F 47.7 °F 29.96 in ENE 2.3 mph 2.3 mph 85% 0.00 in 0.0 W/m2 OVC
05:39 52.0 °F 47.6 °F 29.97 in Calm     85% 0.00 in 0.0 W/m2 OVC
05:44 51.9 °F 47.5 °F 29.97 in Calm     85% 0.00 in 0.0 W/m2 OVC
05:49 51.8 °F 47.4 °F 29.97 in Calm     85% 0.00 in 0.0 W/m2 OVC
05:54 51.7 °F 47.3 °F 29.97 in Calm     85% 0.00 in 0.0 W/m2 OVC
05:59 51.5 °F 47.1 °F 29.97 in Calm     85% 0.00 in 0.0 W/m2 OVC
06:04 51.4 °F 47.0 °F 29.97 in Calm     85% 0.00 in 0.0 W/m2 OVC
06:09 51.3 °F 46.9 °F 29.98 in Calm     85% 0.00 in 0.0 W/m2 OVC
06:14 51.2 °F 46.8 °F 29.98 in Calm     85% 0.00 in 0.0 W/m2 OVC
06:19 51.2 °F 46.8 °F 29.99 in Calm     85% 0.00 in 0.0 W/m2 OVC
06:24 51.2 °F 46.8 °F 29.99 in Calm     85% 0.00 in 0.0 W/m2 BKN
06:29 51.0 °F 46.6 °F 29.98 in Calm     85% 0.00 in 0.0 W/m2 BKN
06:34 50.8 °F 46.5 °F 29.98 in Calm     85% 0.00 in 0.0 W/m2 BKN
06:39 50.7 °F 46.4 °F 29.99 in Calm     85% 0.00 in 0.0 W/m2 BKN
06:44 50.9 °F 46.6 °F 29.99 in Calm     85% 0.00 in 0.0 W/m2 BKN
06:49 50.6 °F 46.3 °F 29.99 in Calm     85% 0.00 in 5.0 W/m2 BKN
06:54 50.5 °F 46.2 °F 29.99 in Calm     85% 0.00 in 9.0 W/m2 BKN
06:59 50.7 °F 46.4 °F 29.99 in ENE 3.5 mph 3.5 mph 85% 0.00 in 14.0 W/m2 BKN
07:04 50.7 °F 46.4 °F 30.00 in ENE 3.5 mph 3.5 mph 85% 0.00 in 19.0 W/m2 FEW
07:09 50.7 °F 46.4 °F 30.00 in ENE 1.2 mph 1.2 mph 85% 0.00 in 23.0 W/m2 FEW
07:14 50.7 °F 46.4 °F 30.00 in ENE 1.2 mph 1.2 mph 85% 0.00 in 26.0 W/m2 CLR
07:19 50.8 °F 46.5 °F 30.00 in ENE 1.2 mph 1.2 mph 85% 0.00 in 28.0 W/m2 CLR
07:24 50.9 °F 46.6 °F 30.01 in Calm     85% 0.00 in 30.0 W/m2 CLR
07:29 50.9 °F 46.6 °F 30.01 in Calm     85% 0.00 in 37.0 W/m2 CLR
07:34 51.0 °F 46.6 °F 30.01 in Calm     85% 0.00 in 47.0 W/m2 CLR
07:39 51.2 °F 46.8 °F 30.01 in ENE 1.2 mph 1.2 mph 85% 0.00 in 40.0 W/m2 CLR
07:44 51.5 °F 47.1 °F 30.01 in Calm     85% 0.00 in 56.0 W/m2 CLR
07:49 51.8 °F 47.4 °F 30.01 in Calm     85% 0.00 in 62.0 W/m2 SCT
07:54 52.0 °F 47.6 °F 30.01 in Calm     85% 0.00 in 116.0 W/m2 SCT
07:59 52.3 °F 47.9 °F 30.02 in ENE 1.0 mph 1.0 mph 85% 0.00 in 81.0 W/m2 SCT
08:04 52.4 °F 48.0 °F 30.02 in ENE 1.2 mph 1.2 mph 85% 0.00 in 111.0 W/m2 CLR
08:09 52.7 °F 48.3 °F 30.02 in ENE 1.0 mph   85% 0.00 in 86.0 W/m2 CLR
08:14 53.2 °F 49.1 °F 30.02 in ENE 3.5 mph 3.5 mph 86% 0.00 in 90.0 W/m2 CLR
08:19 53.4 °F 49.0 °F 30.03 in ENE 3.5 mph 3.5 mph 85% 0.00 in 72.0 W/m2 CLR
08:20 53.4 °F 49.0 °F 30.03 in ENE 3.5 mph 3.5 mph 85% 0.00 in 79.0 W/m2 CLR
08:25 53.8 °F 49.7 °F 30.03 in ENE 3.5 mph 3.5 mph 86% 0.00 in 127.0 W/m2 CLR
08:30 54.2 °F 49.8 °F 30.03 in ENE 3.5 mph 3.5 mph 85% 0.00 in 214.0 W/m2 CLR
08:35 54.4 °F 50.0 °F 30.03 in NW 4.6 mph 4.6 mph 85% 0.00 in 172.0 W/m2 CLR
08:40 54.5 °F 50.1 °F 30.03 in NW 2.3 mph 2.3 mph 85% 0.00 in 139.0 W/m2 CLR
08:45 54.8 °F 50.4 °F 30.03 in NW 2.3 mph 2.3 mph 85% 0.00 in 165.0 W/m2 FEW
08:50 55.4 °F 51.3 °F 30.03 in NW 4.0 mph 4.0 mph 86% 0.00 in 232.0 W/m2 FEW
08:55 55.8 °F 51.4 °F 30.03 in NW 5.0 mph 5.0 mph 85% 0.00 in 213.0 W/m2 FEW
09:00 56.2 °F 52.1 °F 30.03 in NW 3.5 mph 3.5 mph 86% 0.00 in 325.0 W/m2 FEW
09:05 56.5 °F 52.0 °F 30.03 in NW 3.5 mph 3.5 mph 85% 0.00 in 410.0 W/m2 FEW
09:10 56.8 °F 52.7 °F 30.04 in NW 2.3 mph 2.3 mph 86% 0.00 in 427.0 W/m2 FEW
09:15 56.8 °F 52.3 °F 30.03 in NNW 8.1 mph 8.1 mph 85% 0.00 in 366.0 W/m2 FEW
09:20 56.9 °F 52.4 °F 30.03 in North 3.5 mph 3.5 mph 85% 0.00 in 376.0 W/m2 FEW
09:25 57.5 °F 53.3 °F 30.03 in NE 3.5 mph 3.5 mph 86% 0.00 in 480.0 W/m2 FEW
09:30 57.6 °F 53.1 °F 30.03 in NW 3.5 mph 3.5 mph 85% 0.00 in 455.0 W/m2 FEW
09:35 57.9 °F 53.4 °F 30.04 in NE 4.6 mph 4.6 mph 85% 0.00 in 216.0 W/m2 FEW
09:40 58.3 °F 53.8 °F 30.04 in NE 3.5 mph 3.5 mph 85% 0.00 in 216.0 W/m2 FEW
09:45 58.8 °F 54.3 °F 30.04 in North 4.0 mph 4.0 mph 85% 0.00 in 485.0 W/m2 FEW
09:50 59.9 °F 56.6 °F 30.04 in NE 9.2 mph 9.2 mph 89% 0.00 in 712.0 W/m2 FEW
09:55 60.4 °F 57.1 °F 30.04 in ENE 5.0 mph 5.0 mph 89% 0.00 in 693.0 W/m2 BKN
10:00 60.5 °F 56.9 °F 30.04 in ENE 4.6 mph 4.6 mph 88% 0.00 in 691.0 W/m2 BKN
10:05 60.9 °F 57.0 °F 30.05 in ENE 4.6 mph 4.6 mph 87% 0.00 in 343.0 W/m2 BKN
10:10 61.2 °F 57.3 °F 30.05 in ENE 2.0 mph 2.0 mph 87% 0.00 in 842.0 W/m2 BKN
10:15 61.9 °F 57.3 °F 30.05 in NNE 4.0 mph 4.0 mph 85% 0.00 in 193.0 W/m2 SCT
10:20 61.9 °F 56.7 °F 30.05 in NNE 3.5 mph 3.5 mph 83% 0.00 in 309.0 W/m2 SCT
10:25 62.2 °F 57.0 °F 30.05 in NNE 3.5 mph 3.5 mph 83% 0.00 in 338.0 W/m2 SCT
10:30 62.5 °F 56.6 °F 30.05 in NW 3.5 mph 3.5 mph 81% 0.00 in 236.0 W/m2 SCT
10:35 62.7 °F 56.4 °F 30.05 in NNE 3.5 mph 3.5 mph 80% 0.00 in 260.0 W/m2 SCT
10:40 62.7 °F 56.1 °F 30.05 in NNE 3.5 mph 3.5 mph 79% 0.00 in 401.0 W/m2 SCT
10:45 62.9 °F 56.3 °F 30.05 in NE 4.0 mph 4.0 mph 79% 0.00 in 508.0 W/m2 SCT
10:50 63.0 °F 56.7 °F 30.06 in NE 3.5 mph 3.5 mph 80% 0.00 in 508.0 W/m2 SCT
10:55 63.2 °F 56.6 °F 30.06 in NE 3.5 mph 3.5 mph 79% 0.00 in 297.0 W/m2 SCT
Bruceton, TN. NWS Weather Forecast
Compliments of:  Weather Underground - 4.25 mb

Interesting Weather Facts
TENNESSEE RECORD TEMPERATURE EXTREMES
Mountain City, TN. (elevation: 2471 feet ASL) recorded the coldest day at -32°F (-36°C) on 30 December 1917. Perryville, TN. (elevation: 387 feet ASL) recorded the Hottest Day at 113°F (45°C) on 09 August 1930.